Truth — WYV5559 — position and weather

sailwx.info

Track history (hours):
 
Tides and Currents Weather Stations Pressure Air Temp Water Temp Dewpoint Dewpoint Depression Visibility Wind Speed Wind Dir Waves Ship Positions

Truth

Owner: TRUTH AQUATIES INC, SANTA BARBARA, CA. More information available from US FCC via Universal Licensing System and Coast Guard Vessel Documentation Center.

Last reported at 2018-Aug-19 14:58 UTC. Time now 2018-Aug-19 15:17 UTC.
Position N 34°00' W 120°03'.

Length 22 m.

Type: Diving. MMSI: 367384840.

Date/timePositionNaut miles runAvg speedWind from/ knotsBaromVisibWave heightAir tempDewpointWater temp
2018-Aug-19 14:58N 34°00' W 120°03'1 2.2
2018-Aug-19 14:30N 34°01' W 120°02'5 9.5
2018-Aug-19 13:59N 34°04' W 119°57'5 9.5
2018-Aug-19 13:26N 34°07' W 119°52'5 9.7
2018-Aug-19 12:52N 34°12' W 119°48'3 8.4
2018-Aug-19 12:27N 34°15' W 119°49'5 9.6
2018-Aug-19 11:55N 34°19' W 119°45'4 9.8
2018-Aug-19 11:29N 34°23' W 119°42'2 1.1
2018-Aug-19 09:48N 34°24' W 119°42'0 0.0
2018-Aug-19 09:30N 34°24' W 119°42'0 0.0
2018-Aug-19 08:51N 34°24' W 119°42'0 0.0
2018-Aug-19 08:21N 34°24' W 119°42'0 0.0
2018-Aug-19 06:06N 34°24' W 119°42'0 0.0
2018-Aug-19 05:36N 34°24' W 119°42'0 0.0
2018-Aug-19 05:18N 34°24' W 119°42'0 0.0
2018-Aug-19 03:21N 34°24' W 119°42'0 0.0
2018-Aug-19 00:38N 34°24' W 119°42'2 6.3
2018-Aug-19 00:17N 34°22' W 119°42'310.2
2018-Aug-18 23:59N 34°19' W 119°43'810.1
2018-Aug-18 23:13N 34°12' W 119°47'210.1
2018-Aug-18 23:00N 34°10' W 119°48'510.1
2018-Aug-18 22:30N 34°06' W 119°50'2 0.7
2018-Aug-18 20:00N 34°04' W 119°51'2 2.4
2018-Aug-18 19:18N 34°04' W 119°53'0 0.0
2018-Aug-18 18:51N 34°04' W 119°53'0 0.0
2018-Aug-18 18:27N 34°04' W 119°53'0 0.0
2018-Aug-18 17:54N 34°04' W 119°53'0 0.1
2018-Aug-18 17:29N 34°04' W 119°53'4 8.9
2018-Aug-18 16:59N 34°08' W 119°50'5 9.8
2018-Aug-18 16:27N 34°13' W 119°48'5 9.8
2018-Aug-18 15:57N 34°18' W 119°45'4 9.3
2018-Aug-18 15:30N 34°21' W 119°43'3 4.7
2018-Aug-18 14:46N 34°24' W 119°42'0 0.0
2018-Aug-18 12:16N 34°24' W 119°42'0 0.0
2018-Aug-18 08:16N 34°24' W 119°42'0 0.0
2018-Aug-18 07:55N 34°24' W 119°42'0 0.0
2018-Aug-18 06:13N 34°24' W 119°42'0 0.0
2018-Aug-18 05:49N 34°24' W 119°42'0 0.0
2018-Aug-18 03:37N 34°24' W 119°42'0 0.0
2018-Aug-18 03:10N 34°24' W 119°42'22 2.4
2018-Aug-17 17:53N 34°04' W 119°53'3 6.2
2018-Aug-17 17:29N 34°07' W 119°51'4 9.0
2018-Aug-17 17:00N 34°10' W 119°48'2 4.7
2018-Aug-17 16:30N 34°12' W 119°48'710.0
2018-Aug-17 15:50N 34°18' W 119°45'4 9.6
2018-Aug-17 15:26N 34°22' W 119°42'3 0.6
2018-Aug-17 10:27N 34°24' W 119°42'0 0.0
2018-Aug-17 05:06N 34°24' W 119°42'0 0.1
2018-Aug-17 05:00N 34°24' W 119°42'0 0.0
2018-Aug-17 00:09N 34°24' W 119°42'0 0.0
2018-Aug-16 23:51N 34°24' W 119°42'0 0.0
2018-Aug-16 19:15N 34°24' W 119°41'0 0.0
2018-Aug-16 17:51N 34°24' W 119°42'0 0.0
2018-Aug-16 17:30N 34°24' W 119°42'0 0.0
2018-Aug-16 17:00N 34°24' W 119°42'0 0.0
2018-Aug-16 14:48N 34°24' W 119°42'0 0.0
2018-Aug-16 14:18N 34°24' W 119°42'0 0.0
2018-Aug-16 11:18N 34°24' W 119°42'0 0.0
2018-Aug-16 11:00N 34°24' W 119°42'0 0.0
2018-Aug-16 07:48N 34°24' W 119°42'0 0.0
2018-Aug-16 06:03N 34°24' W 119°42'0 0.0
2018-Aug-16 01:12N 34°24' W 119°42'0 0.0
2018-Aug-16 00:57N 34°24' W 119°42'3 6.0
2018-Aug-16 00:28N 34°22' W 119°42'5 9.9
2018-Aug-16 00:00N 34°17' W 119°44'5 9.8
2018-Aug-15 23:29N 34°13' W 119°46'5 9.8
2018-Aug-15 23:00N 34°08' W 119°49'5 9.1
2018-Aug-15 22:29N 34°04' W 119°51'0 0.1
2018-Aug-15 21:57N 34°04' W 119°51'0 0.0
2018-Aug-15 21:24N 34°04' W 119°51'0 0.0
2018-Aug-15 21:00N 34°04' W 119°51'0 0.1
2018-Aug-15 20:30N 34°04' W 119°51'2 3.3
2018-Aug-15 20:00N 34°04' W 119°53'0 0.1
2018-Aug-15 19:22N 34°04' W 119°53'0 0.0
2018-Aug-15 18:58N 34°04' W 119°53'0 0.0
2018-Aug-15 18:28N 34°04' W 119°53'0 0.0
2018-Aug-15 17:58N 34°04' W 119°53'1 2.8
2018-Aug-15 17:28N 34°06' W 119°52'5 9.8
2018-Aug-15 17:00N 34°10' W 119°50'6 9.5
2018-Aug-15 16:21N 34°15' W 119°47'4 9.8
2018-Aug-15 15:59N 34°18' W 119°44'510.0
2018-Aug-15 15:27N 34°23' W 119°42'1 0.3
2018-Aug-15 11:53N 34°24' W 119°42'0 0.0
2018-Aug-14 15:17N 34°24' W 119°42'0 0.0
2018-Aug-14 14:59N 34°24' W 119°42'0 0.0
2018-Aug-14 10:17N 34°24' W 119°42'0 0.0
2018-Aug-14 09:50N 34°24' W 119°42'0 0.0
2018-Aug-14 06:14N 34°24' W 119°42'0 0.0
2018-Aug-14 05:44N 34°24' W 119°42'0 0.0
2018-Aug-14 05:29N 34°24' W 119°42'0 0.0
2018-Aug-14 04:56N 34°24' W 119°42'0 0.0
2018-Aug-14 01:35N 34°24' W 119°42'0 0.0
2018-Aug-13 22:20N 34°24' W 119°42'0 0.0
2018-Aug-13 20:59N 34°24' W 119°42'0 0.0
2018-Aug-13 20:20N 34°24' W 119°42'0 0.0
2018-Aug-13 15:35N 34°24' W 119°42'0 0.0
2018-Aug-13 15:23N 34°24' W 119°42'0 0.0
2018-Aug-13 14:50N 34°24' W 119°42'0 0.0
2018-Aug-13 14:26N 34°24' W 119°42'0 0.0
2018-Aug-13 10:32N 34°24' W 119°42'0 0.0
2018-Aug-13 06:29N 34°24' W 119°42'0 0.0
2018-Aug-13 01:32N 34°24' W 119°42'0 1.1
2018-Aug-13 01:22N 34°24' W 119°42'0 0.0
2018-Aug-13 00:58N 34°24' W 119°42'0 0.2
2018-Aug-12 23:59N 34°24' W 119°42'4 8.1
2018-Aug-12 23:29N 34°21' W 119°44'510.5
2018-Aug-12 23:00N 34°16' W 119°46'610.4
2018-Aug-12 22:26N 34°11' W 119°48'510.3
2018-Aug-12 21:59N 34°06' W 119°51'2 4.1
2018-Aug-12 21:25N 34°04' W 119°52'0 0.0
2018-Aug-12 20:07N 34°04' W 119°52'0 0.0
2018-Aug-12 19:55N 34°04' W 119°52'0 0.0
2018-Aug-12 19:28N 34°04' W 119°52'0 0.0
2018-Aug-12 18:52N 34°04' W 119°52'0 1.1
2018-Aug-12 18:30N 34°04' W 119°52'0 0.1
2018-Aug-12 17:53N 34°04' W 119°52'0 0.0
2018-Aug-12 17:26N 34°04' W 119°52'0 0.1
2018-Aug-12 16:57N 34°04' W 119°52'1 1.0
2018-Aug-12 16:00N 34°04' W 119°54'0 0.0
2018-Aug-12 15:27N 34°04' W 119°54'0 0.0
2018-Aug-12 15:00N 34°04' W 119°54'0 0.0
2018-Aug-12 14:21N 34°04' W 119°54'0 0.1
2018-Aug-12 14:00N 34°04' W 119°54'2 4.1
2018-Aug-12 13:30N 34°04' W 119°56'1 0.1
2018-Aug-12 06:57N 34°03' W 119°56'4 9.3
2018-Aug-12 06:29N 34°03' W 120°01'510.3
2018-Aug-12 06:00N 34°03' W 120°07'510.2
2018-Aug-12 05:30N 34°02' W 120°13'6 9.6
2018-Aug-12 04:52N 34°03' W 120°20'0 0.1
2018-Aug-12 04:23N 34°03' W 120°20'0 0.0
2018-Aug-12 04:00N 34°03' W 120°20'0 0.0
2018-Aug-12 03:27N 34°03' W 120°20'0 0.0
2018-Aug-12 01:31N 34°03' W 120°20'0 0.0
2018-Aug-12 01:00N 34°03' W 120°20'3 5.4
2018-Aug-12 00:30N 34°05' W 120°23'3 6.1
2018-Aug-12 00:00N 34°03' W 120°27'0 0.0
2018-Aug-11 23:27N 34°03' W 120°27'0 0.0
2018-Aug-11 23:00N 34°03' W 120°27'0 0.1
2018-Aug-11 22:30N 34°03' W 120°27'1 1.4
2018-Aug-11 21:43N 34°03' W 120°25'0 0.0
2018-Aug-11 21:28N 34°03' W 120°25'0 0.0
2018-Aug-11 20:58N 34°03' W 120°25'1 2.5
2018-Aug-11 20:30N 34°04' W 120°24'2 3.5
2018-Aug-11 19:52N 34°04' W 120°22'0 0.0
2018-Aug-11 19:25N 34°04' W 120°22'0 0.0
2018-Aug-11 18:58N 34°04' W 120°22'0 0.0
2018-Aug-11 18:27N 34°04' W 120°22'1 2.6
2018-Aug-11 17:52N 34°04' W 120°20'0 0.1
2018-Aug-11 17:26N 34°04' W 120°20'0 0.0
2018-Aug-11 16:59N 34°04' W 120°20'0 0.0
2018-Aug-11 16:26N 34°04' W 120°20'0 0.0
2018-Aug-11 15:59N 34°04' W 120°20'0 0.0
2018-Aug-11 15:26N 34°04' W 120°20'1 1.8
2018-Aug-11 14:58N 34°04' W 120°19'4 8.9
2018-Aug-11 14:28N 34°06' W 120°14'4 9.3
2018-Aug-11 14:00N 34°08' W 120°10'5 9.4
2018-Aug-11 13:30N 34°11' W 120°05'510.0
2018-Aug-11 12:58N 34°13' W 119°59'5 9.9
2018-Aug-11 12:28N 34°16' W 119°54'510.0
2018-Aug-11 11:57N 34°19' W 119°49'510.0
2018-Aug-11 11:28N 34°22' W 119°44'4 4.8
2018-Aug-11 10:42N 34°24' W 119°42'0 0.0
2018-Aug-11 10:21N 34°24' W 119°42'0 0.0
2018-Aug-11 10:00N 34°24' W 119°42'0 0.0
2018-Aug-11 09:06N 34°24' W 119°42'0 0.0
2018-Aug-11 08:45N 34°24' W 119°42'0 0.0
2018-Aug-11 00:50N 34°24' W 119°42'3 7.0
2018-Aug-11 00:23N 34°21' W 119°43'4 9.9
2018-Aug-10 23:56N 34°17' W 119°45'6 9.7
2018-Aug-10 23:18N 34°12' W 119°48'3 9.8
2018-Aug-10 22:59N 34°09' W 119°49'510.0
2018-Aug-10 22:30N 34°04' W 119°51'0 0.3
2018-Aug-10 21:57N 34°04' W 119°51'0 0.0
2018-Aug-10 21:30N 34°04' W 119°51'0 0.0
2018-Aug-10 21:00N 34°04' W 119°51'0 0.0
2018-Aug-10 20:21N 34°04' W 119°51'2 4.2
2018-Aug-10 19:57N 34°04' W 119°53'0 0.0
2018-Aug-10 19:29N 34°04' W 119°53'0 0.1
2018-Aug-10 18:59N 34°04' W 119°53'0 0.0
2018-Aug-10 18:20N 34°04' W 119°53'0 0.0
2018-Aug-10 17:41N 34°04' W 119°53'0 1.4
2018-Aug-10 17:30N 34°05' W 119°53'510.0
2018-Aug-10 16:59N 34°09' W 119°50'4 7.7
2018-Aug-10 16:24N 34°13' W 119°47'510.3
2018-Aug-10 15:54N 34°18' W 119°44'410.0
2018-Aug-10 15:27N 34°22' W 119°42'3 0.2
2018-Aug-09 22:47N 34°24' W 119°42'0 0.0
2018-Aug-09 22:17N 34°24' W 119°42'0 0.0
2018-Aug-09 21:59N 34°24' W 119°42'0 0.1
2018-Aug-09 21:20N 34°24' W 119°41'0 0.1
2018-Aug-09 20:35N 34°24' W 119°42'0 0.0
2018-Aug-09 20:26N 34°24' W 119°42'0 0.1
2018-Aug-09 19:35N 34°24' W 119°41'0 0.0
2018-Aug-09 17:35N 34°24' W 119°42'0 0.0
2018-Aug-09 17:26N 34°24' W 119°42'  
Track history (hours):
 
Tides and Currents Weather Stations Pressure Air Temp Water Temp Dewpoint Dewpoint Depression Visibility Wind Speed Wind Dir Waves Ship Positions

Truth

Owner: TRUTH AQUATIES INC, SANTA BARBARA, CA. More information available from US FCC via Universal Licensing System and Coast Guard Vessel Documentation Center.

Last reported at 2018-Aug-19 14:58 UTC. Time now 2018-Aug-19 15:17 UTC.
Position N 34°00' W 120°03'.

Length 22 m.

Type: Diving. MMSI: 367384840.

Date/timePositionNaut miles runAvg speedWind from/ knotsBaromVisibWave heightAir tempDewpointWater temp
2018-Aug-19 14:58N 34°00' W 120°03'1 2.2
2018-Aug-19 14:30N 34°01' W 120°02'5 9.5
2018-Aug-19 13:59N 34°04' W 119°57'5 9.5
2018-Aug-19 13:26N 34°07' W 119°52'5 9.7
2018-Aug-19 12:52N 34°12' W 119°48'3 8.4
2018-Aug-19 12:27N 34°15' W 119°49'5 9.6
2018-Aug-19 11:55N 34°19' W 119°45'4 9.8
2018-Aug-19 11:29N 34°23' W 119°42'2 1.1
2018-Aug-19 09:48N 34°24' W 119°42'0 0.0
2018-Aug-19 09:30N 34°24' W 119°42'0 0.0
2018-Aug-19 08:51N 34°24' W 119°42'0 0.0
2018-Aug-19 08:21N 34°24' W 119°42'0 0.0
2018-Aug-19 06:06N 34°24' W 119°42'0 0.0
2018-Aug-19 05:36N 34°24' W 119°42'0 0.0
2018-Aug-19 05:18N 34°24' W 119°42'0 0.0
2018-Aug-19 03:21N 34°24' W 119°42'0 0.0
2018-Aug-19 00:38N 34°24' W 119°42'2 6.3
2018-Aug-19 00:17N 34°22' W 119°42'310.2
2018-Aug-18 23:59N 34°19' W 119°43'810.1
2018-Aug-18 23:13N 34°12' W 119°47'210.1
2018-Aug-18 23:00N 34°10' W 119°48'510.1
2018-Aug-18 22:30N 34°06' W 119°50'2 0.7
2018-Aug-18 20:00N 34°04' W 119°51'2 2.4
2018-Aug-18 19:18N 34°04' W 119°53'0 0.0
2018-Aug-18 18:51N 34°04' W 119°53'0 0.0
2018-Aug-18 18:27N 34°04' W 119°53'0 0.0
2018-Aug-18 17:54N 34°04' W 119°53'0 0.1
2018-Aug-18 17:29N 34°04' W 119°53'4 8.9
2018-Aug-18 16:59N 34°08' W 119°50'5 9.8
2018-Aug-18 16:27N 34°13' W 119°48'5 9.8
2018-Aug-18 15:57N 34°18' W 119°45'4 9.3
2018-Aug-18 15:30N 34°21' W 119°43'3 4.7
2018-Aug-18 14:46N 34°24' W 119°42'0 0.0
2018-Aug-18 12:16N 34°24' W 119°42'0 0.0
2018-Aug-18 08:16N 34°24' W 119°42'0 0.0
2018-Aug-18 07:55N 34°24' W 119°42'0 0.0
2018-Aug-18 06:13N 34°24' W 119°42'0 0.0
2018-Aug-18 05:49N 34°24' W 119°42'0 0.0
2018-Aug-18 03:37N 34°24' W 119°42'0 0.0
2018-Aug-18 03:10N 34°24' W 119°42'22 2.4
2018-Aug-17 17:53N 34°04' W 119°53'3 6.2
2018-Aug-17 17:29N 34°07' W 119°51'4 9.0
2018-Aug-17 17:00N 34°10' W 119°48'2 4.7
2018-Aug-17 16:30N 34°12' W 119°48'710.0
2018-Aug-17 15:50N 34°18' W 119°45'4 9.6
2018-Aug-17 15:26N 34°22' W 119°42'3 0.6
2018-Aug-17 10:27N 34°24' W 119°42'0 0.0
2018-Aug-17 05:06N 34°24' W 119°42'0 0.1
2018-Aug-17 05:00N 34°24' W 119°42'0 0.0
2018-Aug-17 00:09N 34°24' W 119°42'0 0.0
2018-Aug-16 23:51N 34°24' W 119°42'0 0.0
2018-Aug-16 19:15N 34°24' W 119°41'0 0.0
2018-Aug-16 17:51N 34°24' W 119°42'0 0.0
2018-Aug-16 17:30N 34°24' W 119°42'0 0.0
2018-Aug-16 17:00N 34°24' W 119°42'0 0.0
2018-Aug-16 14:48N 34°24' W 119°42'0 0.0
2018-Aug-16 14:18N 34°24' W 119°42'0 0.0
2018-Aug-16 11:18N 34°24' W 119°42'0 0.0
2018-Aug-16 11:00N 34°24' W 119°42'0 0.0
2018-Aug-16 07:48N 34°24' W 119°42'0 0.0
2018-Aug-16 06:03N 34°24' W 119°42'0 0.0
2018-Aug-16 01:12N 34°24' W 119°42'0 0.0
2018-Aug-16 00:57N 34°24' W 119°42'3 6.0
2018-Aug-16 00:28N 34°22' W 119°42'5 9.9
2018-Aug-16 00:00N 34°17' W 119°44'5 9.8
2018-Aug-15 23:29N 34°13' W 119°46'5 9.8
2018-Aug-15 23:00N 34°08' W 119°49'5 9.1
2018-Aug-15 22:29N 34°04' W 119°51'0 0.1
2018-Aug-15 21:57N 34°04' W 119°51'0 0.0
2018-Aug-15 21:24N 34°04' W 119°51'0 0.0
2018-Aug-15 21:00N 34°04' W 119°51'0 0.1
2018-Aug-15 20:30N 34°04' W 119°51'2 3.3
2018-Aug-15 20:00N 34°04' W 119°53'0 0.1
2018-Aug-15 19:22N 34°04' W 119°53'0 0.0
2018-Aug-15 18:58N 34°04' W 119°53'0 0.0
2018-Aug-15 18:28N 34°04' W 119°53'0 0.0
2018-Aug-15 17:58N 34°04' W 119°53'1 2.8
2018-Aug-15 17:28N 34°06' W 119°52'5 9.8
2018-Aug-15 17:00N 34°10' W 119°50'6 9.5
2018-Aug-15 16:21N 34°15' W 119°47'4 9.8
2018-Aug-15 15:59N 34°18' W 119°44'510.0
2018-Aug-15 15:27N 34°23' W 119°42'1 0.3
2018-Aug-15 11:53N 34°24' W 119°42'0 0.0
2018-Aug-14 15:17N 34°24' W 119°42'0 0.0
2018-Aug-14 14:59N 34°24' W 119°42'0 0.0
2018-Aug-14 10:17N 34°24' W 119°42'0 0.0
2018-Aug-14 09:50N 34°24' W 119°42'0 0.0
2018-Aug-14 06:14N 34°24' W 119°42'0 0.0
2018-Aug-14 05:44N 34°24' W 119°42'0 0.0
2018-Aug-14 05:29N 34°24' W 119°42'0 0.0
2018-Aug-14 04:56N 34°24' W 119°42'0 0.0
2018-Aug-14 01:35N 34°24' W 119°42'0 0.0
2018-Aug-13 22:20N 34°24' W 119°42'0 0.0
2018-Aug-13 20:59N 34°24' W 119°42'0 0.0
2018-Aug-13 20:20N 34°24' W 119°42'0 0.0
2018-Aug-13 15:35N 34°24' W 119°42'0 0.0
2018-Aug-13 15:23N 34°24' W 119°42'0 0.0
2018-Aug-13 14:50N 34°24' W 119°42'0 0.0
2018-Aug-13 14:26N 34°24' W 119°42'0 0.0
2018-Aug-13 10:32N 34°24' W 119°42'0 0.0
2018-Aug-13 06:29N 34°24' W 119°42'0 0.0
2018-Aug-13 01:32N 34°24' W 119°42'0 1.1
2018-Aug-13 01:22N 34°24' W 119°42'0 0.0
2018-Aug-13 00:58N 34°24' W 119°42'0 0.2
2018-Aug-12 23:59N 34°24' W 119°42'4 8.1
2018-Aug-12 23:29N 34°21' W 119°44'510.5
2018-Aug-12 23:00N 34°16' W 119°46'610.4
2018-Aug-12 22:26N 34°11' W 119°48'510.3
2018-Aug-12 21:59N 34°06' W 119°51'2 4.1
2018-Aug-12 21:25N 34°04' W 119°52'0 0.0
2018-Aug-12 20:07N 34°04' W 119°52'0 0.0
2018-Aug-12 19:55N 34°04' W 119°52'0 0.0
2018-Aug-12 19:28N 34°04' W 119°52'0 0.0
2018-Aug-12 18:52N 34°04' W 119°52'0 1.1
2018-Aug-12 18:30N 34°04' W 119°52'0 0.1
2018-Aug-12 17:53N 34°04' W 119°52'0 0.0
2018-Aug-12 17:26N 34°04' W 119°52'0 0.1
2018-Aug-12 16:57N 34°04' W 119°52'1 1.0
2018-Aug-12 16:00N 34°04' W 119°54'0 0.0
2018-Aug-12 15:27N 34°04' W 119°54'0 0.0
2018-Aug-12 15:00N 34°04' W 119°54'0 0.0
2018-Aug-12 14:21N 34°04' W 119°54'0 0.1
2018-Aug-12 14:00N 34°04' W 119°54'2 4.1
2018-Aug-12 13:30N 34°04' W 119°56'1 0.1
2018-Aug-12 06:57N 34°03' W 119°56'4 9.3
2018-Aug-12 06:29N 34°03' W 120°01'510.3
2018-Aug-12 06:00N 34°03' W 120°07'510.2
2018-Aug-12 05:30N 34°02' W 120°13'6 9.6
2018-Aug-12 04:52N 34°03' W 120°20'0 0.1
2018-Aug-12 04:23N 34°03' W 120°20'0 0.0
2018-Aug-12 04:00N 34°03' W 120°20'0 0.0
2018-Aug-12 03:27N 34°03' W 120°20'0 0.0
2018-Aug-12 01:31N 34°03' W 120°20'0 0.0
2018-Aug-12 01:00N 34°03' W 120°20'3 5.4
2018-Aug-12 00:30N 34°05' W 120°23'3 6.1
2018-Aug-12 00:00N 34°03' W 120°27'0 0.0
2018-Aug-11 23:27N 34°03' W 120°27'0 0.0
2018-Aug-11 23:00N 34°03' W 120°27'0 0.1
2018-Aug-11 22:30N 34°03' W 120°27'1 1.4
2018-Aug-11 21:43N 34°03' W 120°25'0 0.0
2018-Aug-11 21:28N 34°03' W 120°25'0 0.0
2018-Aug-11 20:58N 34°03' W 120°25'1 2.5
2018-Aug-11 20:30N 34°04' W 120°24'2 3.5
2018-Aug-11 19:52N 34°04' W 120°22'0 0.0
2018-Aug-11 19:25N 34°04' W 120°22'0 0.0
2018-Aug-11 18:58N 34°04' W 120°22'0 0.0
2018-Aug-11 18:27N 34°04' W 120°22'1 2.6
2018-Aug-11 17:52N 34°04' W 120°20'0 0.1
2018-Aug-11 17:26N 34°04' W 120°20'0 0.0
2018-Aug-11 16:59N 34°04' W 120°20'0 0.0
2018-Aug-11 16:26N 34°04' W 120°20'0 0.0
2018-Aug-11 15:59N 34°04' W 120°20'0 0.0
2018-Aug-11 15:26N 34°04' W 120°20'1 1.8
2018-Aug-11 14:58N 34°04' W 120°19'4 8.9
2018-Aug-11 14:28N 34°06' W 120°14'4 9.3
2018-Aug-11 14:00N 34°08' W 120°10'5 9.4
2018-Aug-11 13:30N 34°11' W 120°05'510.0
2018-Aug-11 12:58N 34°13' W 119°59'5 9.9
2018-Aug-11 12:28N 34°16' W 119°54'510.0
2018-Aug-11 11:57N 34°19' W 119°49'510.0
2018-Aug-11 11:28N 34°22' W 119°44'4 4.8
2018-Aug-11 10:42N 34°24' W 119°42'0 0.0
2018-Aug-11 10:21N 34°24' W 119°42'0 0.0
2018-Aug-11 10:00N 34°24' W 119°42'0 0.0
2018-Aug-11 09:06N 34°24' W 119°42'0 0.0
2018-Aug-11 08:45N 34°24' W 119°42'0 0.0
2018-Aug-11 00:50N 34°24' W 119°42'3 7.0
2018-Aug-11 00:23N 34°21' W 119°43'4 9.9
2018-Aug-10 23:56N 34°17' W 119°45'6 9.7
2018-Aug-10 23:18N 34°12' W 119°48'3 9.8
2018-Aug-10 22:59N 34°09' W 119°49'510.0
2018-Aug-10 22:30N 34°04' W 119°51'0 0.3
2018-Aug-10 21:57N 34°04' W 119°51'0 0.0
2018-Aug-10 21:30N 34°04' W 119°51'0 0.0
2018-Aug-10 21:00N 34°04' W 119°51'0 0.0
2018-Aug-10 20:21N 34°04' W 119°51'2 4.2
2018-Aug-10 19:57N 34°04' W 119°53'0 0.0
2018-Aug-10 19:29N 34°04' W 119°53'0 0.1
2018-Aug-10 18:59N 34°04' W 119°53'0 0.0
2018-Aug-10 18:20N 34°04' W 119°53'0 0.0
2018-Aug-10 17:41N 34°04' W 119°53'0 1.4
2018-Aug-10 17:30N 34°05' W 119°53'510.0
2018-Aug-10 16:59N 34°09' W 119°50'4 7.7
2018-Aug-10 16:24N 34°13' W 119°47'510.3
2018-Aug-10 15:54N 34°18' W 119°44'410.0
2018-Aug-10 15:27N 34°22' W 119°42'3 0.2
2018-Aug-09 22:47N 34°24' W 119°42'0 0.0
2018-Aug-09 22:17N 34°24' W 119°42'0 0.0
2018-Aug-09 21:59N 34°24' W 119°42'0 0.1
2018-Aug-09 21:20N 34°24' W 119°41'0 0.1
2018-Aug-09 20:35N 34°24' W 119°42'0 0.0
2018-Aug-09 20:26N 34°24' W 119°42'0 0.1
2018-Aug-09 19:35N 34°24' W 119°41'0 0.0
2018-Aug-09 17:35N 34°24' W 119°42'0 0.0
2018-Aug-09 17:26N 34°24' W 119°42'  

Dump ship's entire track history